Time;durP1;ratioP1;P1;durP2;ratioP2;P2;SDS_P1;SDS_P2;PMS_P1;PMS_P2;Temp;Humidity;BMP_temperature;BMP_pressure;BME280_temperature;BME280_humidity;BME280_pressure;Samples;Min_cycle;Max_cycle;Signal;HPM_P1;HPM_P2
2023/02/18 00:03:34;;;;;;;2.22;0.40;;;;;;;13.62;74.02;101054.22;12634273;23;20025;-61
2023/02/18 00:08:36;;;;;;;3.03;0.40;;;;;;;13.62;73.89;101059.63;12636688;23;20026;-60
2023/02/18 00:13:38;;;;;;;2.72;0.60;;;;;;;13.63;73.69;101055.09;12616539;23;20034;-60
2023/02/18 00:18:39;;;;;;;3.85;0.73;;;;;;;13.63;73.95;101052.38;12639233;23;20029;-59
2023/02/18 00:23:41;;;;;;;3.55;1.15;;;;;;;13.63;74.07;101057.78;12642866;23;20031;-59
2023/02/18 00:28:47;;;;;;;4.43;1.67;;;;;;;13.60;74.13;101052.72;12644937;23;20022;-61
2023/02/18 00:33:48;;;;;;;3.15;1.40;;;;;;;13.47;74.50;101058.72;12649583;23;20103;-60
2023/02/18 00:38:52;;;;;;;4.03;1.73;;;;;;;13.42;74.56;101055.72;12648925;23;20018;-59
2023/02/18 00:43:54;;;;;;;3.90;1.58;;;;;;;13.38;74.53;101054.38;12653127;23;20036;-59
2023/02/18 00:48:56;;;;;;;2.67;1.10;;;;;;;13.34;74.62;101055.75;12653085;23;20022;-60
2023/02/18 00:53:57;;;;;;;1.25;1.00;;;;;;;13.31;74.69;101050.69;12654850;23;20006;-60
2023/02/18 00:58:58;;;;;;;0.80;0.60;;;;;;;13.25;74.74;101054.91;12654261;23;20066;-61
2023/02/18 01:04:00;;;;;;;1.48;0.30;;;;;;;13.27;74.39;101059.13;12653382;23;20314;-61
2023/02/18 01:09:03;;;;;;;2.60;0.38;;;;;;;13.28;74.26;101052.69;12628179;23;20006;-60
2023/02/18 01:14:05;;;;;;;0.60;0.40;;;;;;;13.25;74.49;101042.25;12652756;23;20030;-59
2023/02/18 01:19:06;;;;;;;0.90;0.40;;;;;;;13.23;74.14;101036.19;12651024;23;20022;-59
2023/02/18 01:24:07;;;;;;;1.35;0.60;;;;;;;13.19;74.31;101042.09;12651604;23;20171;-59
2023/02/18 01:29:09;;;;;;;0.90;0.50;;;;;;;13.11;74.41;101037.59;12651310;23;20064;-60
2023/02/18 01:34:10;;;;;;;2.03;0.32;;;;;;;13.05;75.10;101028.34;12651702;23;20022;-59
2023/02/18 01:39:11;;;;;;;0.98;0.40;;;;;;;13.07;74.75;101031.72;12651079;23;20013;-59
2023/02/18 01:44:18;;;;;;;0.98;0.63;;;;;;;13.06;74.94;101029.19;12652126;23;20074;-59
2023/02/18 01:49:31;;;;;;;1.05;0.75;;;;;;;13.06;75.07;101015.69;12653109;23;20103;-59
2023/02/18 01:54:38;;;;;;;1.15;0.55;;;;;;;13.05;75.28;101020.25;12649487;23;20104;-59
2023/02/18 01:59:43;;;;;;;;;;;;;;;13.07;75.48;101015.53;12646033;23;20054;-60
2023/02/18 02:04:46;;;;;;;1.13;0.30;;;;;;;13.07;75.35;101010.13;12647810;23;19927;-59
2023/02/18 02:09:49;;;;;;;2.28;0.30;;;;;;;13.13;75.08;101010.41;12644045;23;20014;-60
2023/02/18 02:15:09;;;;;;;1.77;0.25;;;;;;;13.12;75.00;101006.06;12651087;23;20030;-60
2023/02/18 02:20:44;;;;;;;2.15;0.50;;;;;;;13.21;74.74;100991.47;12654257;23;20163;-61
2023/02/18 02:26:07;;;;;;;0.73;0.30;;;;;;;13.23;74.46;100986.75;12645329;23;20034;-60
2023/02/18 02:31:46;;;;;;;0.70;0.20;;;;;;;13.16;74.61;100993.88;12645590;23;20018;-60
2023/02/18 02:37:14;;;;;;;1.17;0.20;;;;;;;13.21;74.15;100995.03;12617707;23;20037;-61
2023/02/18 02:42:41;;;;;;;0.15;0.10;;;;;;;13.07;74.49;100976.88;12642530;23;20062;-60
2023/02/18 02:47:59;;;;;;;0.85;0.10;;;;;;;13.01;74.12;100969.50;12645159;23;20130;-60
2023/02/18 02:53:13;;;;;;;0.98;0.10;;;;;;;12.97;74.01;100976.25;12647058;23;20087;-60
2023/02/18 02:58:18;;;;;;;0.20;0.10;;;;;;;12.98;74.11;100975.25;12643574;23;20023;-60
2023/02/18 03:03:28;;;;;;;0.20;0.10;;;;;;;12.91;74.16;100977.81;12645898;23;20090;-60
2023/02/18 03:08:55;;;;;;;0.20;0.10;;;;;;;12.90;73.92;100974.28;12641368;23;20027;-60
2023/02/18 03:14:09;;;;;;;0.35;0.10;;;;;;;12.92;73.50;100974.09;12643283;23;20006;-60
2023/02/18 03:19:21;;;;;;;0.40;0.10;;;;;;;12.87;73.74;100971.94;12644087;23;20022;-60
2023/02/18 03:24:28;;;;;;;0.95;0.10;;;;;;;12.85;74.57;100973.09;12646819;23;20101;-61
2023/02/18 03:29:30;;;;;;;0.13;0.10;;;;;;;12.82;74.60;100960.81;12643311;23;20029;-61
2023/02/18 03:34:37;;;;;;;0.43;0.20;;;;;;;12.83;74.71;100959.78;12643803;23;20026;-60
2023/02/18 03:39:44;;;;;;;0.30;0.10;;;;;;;12.89;74.49;100964.50;12644230;23;20018;-60
2023/02/18 03:44:46;;;;;;;1.15;0.28;;;;;;;12.91;74.26;100969.72;12644774;23;20041;-61
2023/02/18 03:49:47;;;;;;;0.20;0.20;;;;;;;12.96;74.49;100972.72;12645903;23;20026;-61
2023/02/18 03:54:49;;;;;;;0.30;0.20;;;;;;;12.95;74.54;100981.00;12644524;23;20045;-59
2023/02/18 03:59:51;;;;;;;0.75;0.20;;;;;;;12.99;74.54;100969.66;12639704;23;20026;-60
2023/02/18 04:04:52;;;;;;;1.27;0.10;;;;;;;13.05;74.09;100958.19;12645141;23;20074;-60
2023/02/18 04:09:53;;;;;;;1.05;0.10;;;;;;;13.12;73.72;100963.69;12643504;23;20037;-60
2023/02/18 04:14:55;;;;;;;0.10;0.10;;;;;;;13.19;73.87;100964.69;12643057;23;20022;-60
2023/02/18 04:19:56;;;;;;;0.10;0.10;;;;;;;13.09;74.21;100964.03;12643999;23;20027;-59
2023/02/18 04:24:59;;;;;;;0.47;0.10;;;;;;;13.08;74.37;100957.81;12644184;23;20081;-60
2023/02/18 04:30:01;;;;;;;0.30;0.20;;;;;;;13.12;74.27;100958.31;12642398;23;20022;-60
2023/02/18 04:35:03;;;;;;;0.80;0.22;;;;;;;13.07;74.05;100960.69;12628995;23;20022;-60
2023/02/18 04:40:05;;;;;;;1.70;0.30;;;;;;;13.12;74.04;100954.78;12643029;23;20018;-60
2023/02/18 04:45:07;;;;;;;1.42;0.30;;;;;;;13.07;74.04;100941.78;12643002;23;20014;-60
2023/02/18 04:50:09;;;;;;;0.40;0.30;;;;;;;13.16;73.91;100940.72;12646755;23;20026;-59
2023/02/18 04:55:10;;;;;;;3.42;0.25;;;;;;;13.10;74.22;100939.56;12643563;23;20291;-60
2023/02/18 05:00:15;;;;;;;0.38;0.15;;;;;;;13.07;74.18;100931.84;12643461;23;20019;-61
2023/02/18 05:05:17;;;;;;;0.40;0.20;;;;;;;13.10;73.94;100917.16;12644645;23;20030;-61
2023/02/18 05:10:18;;;;;;;0.30;0.20;;;;;;;13.08;74.18;100917.31;12644148;23;20103;-59
2023/02/18 05:15:20;;;;;;;1.20;0.63;;;;;;;13.12;73.68;100915.13;12641425;23;20057;-60
2023/02/18 05:20:21;;;;;;;0.90;0.30;;;;;;;12.96;74.22;100916.06;12646797;23;20025;-61
2023/02/18 05:25:22;;;;;;;1.05;0.50;;;;;;;12.87;74.65;100914.41;12646278;23;20034;-61
2023/02/18 05:30:24;;;;;;;2.10;0.50;;;;;;;12.85;74.84;100900.25;12645969;23;20022;-60
2023/02/18 05:35:25;;;;;;;0.90;0.40;;;;;;;12.76;75.07;100902.19;12650168;23;20030;-60
2023/02/18 05:40:27;;;;;;;3.47;0.93;;;;;;;12.80;75.01;100892.72;12645304;23;20022;-60
2023/02/18 05:45:28;;;;;;;1.08;0.52;;;;;;;12.78;75.27;100880.41;12645479;23;20045;-60
2023/02/18 05:50:30;;;;;;;1.67;0.65;;;;;;;12.74;75.06;100874.53;12645785;23;20018;-60
2023/02/18 05:55:36;;;;;;;0.70;0.40;;;;;;;12.66;75.50;100866.50;12643927;23;20030;-59
2023/02/18 06:00:37;;;;;;;2.10;0.40;;;;;;;12.66;75.92;100859.22;12617353;23;20022;-59
2023/02/18 06:05:39;;;;;;;1.33;0.30;;;;;;;12.70;75.98;100857.03;12640268;23;20077;-59
2023/02/18 06:10:40;;;;;;;0.70;0.25;;;;;;;12.81;75.14;100843.13;12643187;23;20022;-59
2023/02/18 06:15:42;;;;;;;0.40;0.30;;;;;;;12.88;75.25;100848.66;12640378;23;20054;-59
2023/02/18 06:20:43;;;;;;;1.40;0.20;;;;;;;12.85;75.21;100841.72;12643819;23;20018;-59
2023/02/18 06:25:47;;;;;;;2.20;0.15;;;;;;;12.92;74.75;100855.38;12646039;23;20026;-60
2023/02/18 06:30:49;;;;;;;0.20;0.10;;;;;;;13.00;74.71;100849.91;12631728;23;20026;-61
2023/02/18 06:35:55;;;;;;;0.47;0.13;;;;;;;13.01;74.71;100845.34;12593718;23;20081;-61
2023/02/18 06:40:57;;;;;;;0.95;0.30;;;;;;;13.05;74.39;100860.16;12592518;23;20132;-61
2023/02/18 06:45:58;;;;;;;0.85;0.30;;;;;;;13.05;74.55;100858.31;12591299;23;20019;-61
2023/02/18 06:50:59;;;;;;;0.52;0.40;;;;;;;13.13;74.03;100853.88;12593768;23;20018;-61
2023/02/18 06:56:01;;;;;;;1.52;0.47;;;;;;;13.10;73.90;100844.28;12595533;23;20022;-61
2023/02/18 07:01:03;;;;;;;0.60;0.40;;;;;;;13.13;73.55;100843.06;12595755;23;20025;-62
2023/02/18 07:06:04;;;;;;;2.30;0.50;;;;;;;13.06;73.12;100834.88;12594556;23;20041;-62
2023/02/18 07:11:06;;;;;;;0.63;0.30;;;;;;;13.12;73.04;100831.44;12595450;23;20033;-62
2023/02/18 07:16:07;;;;;;;1.42;0.40;;;;;;;13.16;72.39;100826.53;12595132;23;20023;-61
2023/02/18 07:21:09;;;;;;;1.40;0.70;;;;;;;13.14;71.55;100818.59;12593026;23;20018;-61
2023/02/18 07:26:13;;;;;;;1.95;0.60;;;;;;;13.11;70.95;100824.34;12594449;23;20030;-61
2023/02/18 07:31:14;;;;;;;1.42;0.70;;;;;;;13.15;70.38;100832.94;12596511;23;20125;-61
2023/02/18 07:36:16;;;;;;;0.82;0.68;;;;;;;13.09;70.38;100837.19;12591372;23;20357;-61
2023/02/18 07:41:21;;;;;;;2.20;0.70;;;;;;;13.07;69.28;100833.81;12594224;23;20077;-61
2023/02/18 07:46:22;;;;;;;2.00;0.70;;;;;;;12.99;69.09;100829.31;12595459;23;20029;-61
2023/02/18 07:51:24;;;;;;;2.15;0.50;;;;;;;13.03;68.20;100832.50;12598333;23;20498;-63
2023/02/18 07:56:26;;;;;;;0.93;0.50;;;;;;;13.04;68.13;100834.19;12592366;23;20030;-60
2023/02/18 08:01:27;;;;;;;0.95;0.40;;;;;;;13.04;67.77;100813.44;12592093;23;20358;-61
2023/02/18 08:06:37;;;;;;;0.85;0.43;;;;;;;13.04;67.57;100808.03;12591766;23;20450;-62
2023/02/18 08:11:39;;;;;;;0.70;0.30;;;;;;;13.00;67.24;100809.44;12600016;23;20077;-61
2023/02/18 08:16:40;;;;;;;0.57;0.43;;;;;;;12.98;66.41;100813.34;12591946;23;20029;-61
2023/02/18 08:21:42;;;;;;;1.33;0.40;;;;;;;12.97;66.25;100830.53;12592406;23;20032;-61
2023/02/18 08:26:43;;;;;;;2.45;0.60;;;;;;;12.94;65.35;100837.13;12591512;23;20580;-61
2023/02/18 08:32:00;;;;;;;1.03;0.50;;;;;;;13.03;64.21;100840.59;12592655;23;20795;-61
2023/02/18 08:37:02;;;;;;;1.15;0.70;;;;;;;13.21;63.89;100846.56;12587958;23;20254;-61
2023/02/18 08:42:28;;;;;;;1.88;0.60;;;;;;;13.32;63.26;100857.97;12573744;23;20458;-61
2023/02/18 08:47:29;;;;;;;1.58;0.75;;;;;;;13.32;62.80;100868.78;12590779;23;20022;-61
2023/02/18 08:52:52;;;;;;;0.70;0.50;;;;;;;13.43;62.41;100857.56;12603787;23;20031;-61
2023/02/18 08:57:53;;;;;;;1.58;0.50;;;;;;;13.50;61.97;100850.38;12601250;23;20458;-61
2023/02/18 09:02:54;;;;;;;0.73;0.47;;;;;;;13.47;61.18;100859.69;12612008;23;20023;-61
2023/02/18 09:07:56;;;;;;;1.42;0.60;;;;;;;13.49;61.26;100854.13;12612630;23;20363;-61
2023/02/18 09:12:57;;;;;;;1.98;0.50;;;;;;;13.64;61.49;100830.66;12614515;23;20098;-60
2023/02/18 09:17:58;;;;;;;0.80;0.60;;;;;;;13.62;60.81;100848.06;12628114;23;20018;-62
2023/02/18 09:23:02;;;;;;;0.50;0.40;;;;;;;13.57;60.14;100861.31;12674077;23;20061;-61
2023/02/18 09:28:03;;;;;;;1.23;0.50;;;;;;;13.60;60.25;100850.13;12664471;23;20037;-61
2023/02/18 09:33:05;;;;;;;1.13;0.50;;;;;;;13.66;59.67;100827.78;12665470;23;20058;-64
2023/02/18 09:38:11;;;;;;;0.40;0.30;;;;;;;13.65;59.08;100826.94;12658250;23;20030;-62
2023/02/18 09:43:22;;;;;;;1.30;0.50;;;;;;;13.58;58.95;100852.16;12657296;23;20520;-62
2023/02/18 09:48:30;;;;;;;0.73;0.40;;;;;;;13.65;59.20;100861.22;12657954;23;20022;-62
2023/02/18 09:53:31;;;;;;;0.60;0.55;;;;;;;13.61;59.01;100851.81;12658439;23;20026;-62
2023/02/18 09:58:33;;;;;;;1.63;0.30;;;;;;;13.54;58.78;100864.38;12658726;23;20227;-62
2023/02/18 10:03:36;;;;;;;0.68;0.35;;;;;;;13.53;58.65;100866.22;12657274;23;20022;-62
2023/02/18 10:08:43;;;;;;;0.45;0.30;;;;;;;13.55;58.90;100861.50;12657464;23;20057;-62
2023/02/18 10:13:44;;;;;;;0.50;0.25;;;;;;;13.57;58.89;100874.81;12657183;23;20022;-63
2023/02/18 10:19:28;;;;;;;0.40;0.20;;;;;;;13.63;58.53;100849.75;12595866;23;20022;-62
2023/02/18 10:24:36;;;;;;;0.57;0.25;;;;;;;13.77;58.40;100843.53;12593198;23;20350;-62
2023/02/18 10:29:37;;;;;;;0.35;0.20;;;;;;;13.87;58.39;100835.16;12596237;23;20042;-61
2023/02/18 10:34:42;;;;;;;0.52;0.20;;;;;;;13.89;58.14;100836.66;12595766;23;20097;-61
2023/02/18 10:39:51;;;;;;;0.20;0.10;;;;;;;13.91;57.94;100841.03;12594471;23;20026;-61
2023/02/18 10:45:29;;;;;;;1.35;0.10;;;;;;;13.75;58.08;100848.28;12595212;23;20019;-61
2023/02/18 10:50:39;;;;;;;0.30;0.00;;;;;;;13.64;57.21;100852.25;12550219;23;20027;-60
2023/02/18 10:55:48;;;;;;;0.30;0.00;;;;;;;13.63;57.68;100856.00;12595975;23;20030;-61
2023/02/18 11:00:49;;;;;;;0.63;0.08;;;;;;;13.65;58.00;100842.31;12534017;23;20027;-61
2023/02/18 11:05:56;;;;;;;0.70;0.05;;;;;;;13.63;57.64;100826.28;12535288;23;20082;-61
2023/02/18 11:10:58;;;;;;;0.10;0.10;;;;;;;13.72;57.70;100815.38;12535676;23;20530;-61
2023/02/18 11:16:03;;;;;;;0.73;0.10;;;;;;;13.76;57.83;100838.31;12562787;23;20093;-61
2023/02/18 11:21:34;;;;;;;0.10;0.10;;;;;;;13.60;58.36;100839.31;12639645;23;20330;-61
2023/02/18 11:26:38;;;;;;;0.20;0.10;;;;;;;13.60;58.13;100815.00;12643473;23;20034;-61
2023/02/18 11:31:44;;;;;;;0.43;0.13;;;;;;;13.71;57.68;100819.13;12655958;23;20025;-61
2023/02/18 11:36:47;;;;;;;1.45;0.10;;;;;;;13.66;57.75;100807.03;12649332;23;20022;-61
2023/02/18 11:42:02;;;;;;;1.17;0.20;;;;;;;13.61;57.87;100793.22;12652000;23;20022;-61
2023/02/18 11:47:18;;;;;;;0.38;0.10;;;;;;;13.64;57.76;100787.44;12654729;23;20473;-61
2023/02/18 11:52:26;;;;;;;2.47;0.10;;;;;;;13.67;57.83;100768.16;12655362;23;20022;-60
2023/02/18 11:57:28;;;;;;;0.35;0.10;;;;;;;13.68;58.02;100771.69;12657190;23;20013;-61
2023/02/18 12:02:36;;;;;;;0.30;0.20;;;;;;;13.63;57.94;100769.56;12655186;23;20542;-62
2023/02/18 12:07:44;;;;;;;0.90;0.15;;;;;;;13.64;58.13;100754.19;12654746;23;20026;-61
2023/02/18 12:12:58;;;;;;;1.02;0.28;;;;;;;13.69;58.14;100766.09;12655101;23;20417;-61
2023/02/18 12:18:21;;;;;;;2.58;0.70;;;;;;;13.71;57.99;100738.09;12608314;23;20639;-61
2023/02/18 12:23:35;;;;;;;1.58;0.20;;;;;;;13.68;58.37;100740.13;12602737;23;20042;-63
2023/02/18 12:29:11;;;;;;;0.65;0.20;;;;;;;13.82;58.11;100754.66;12568398;23;20030;-61
2023/02/18 12:34:35;;;;;;;2.15;0.30;;;;;;;13.80;57.85;100764.81;12569955;23;20023;-61
2023/02/18 12:39:56;;;;;;;2.70;0.40;;;;;;;13.88;57.89;100756.59;12593321;23;20026;-61
2023/02/18 12:45:24;;;;;;;0.85;0.20;;;;;;;13.85;58.08;100748.03;12592881;23;20022;-61
2023/02/18 12:50:38;;;;;;;1.90;0.30;;;;;;;13.92;57.94;100738.16;12595777;23;20481;-61
2023/02/18 12:56:10;;;;;;;1.15;0.30;;;;;;;13.74;59.04;100768.25;12595901;23;20057;-61
2023/02/18 13:01:33;;;;;;;1.15;0.30;;;;;;;13.40;61.02;100761.50;12593839;23;20022;-61
2023/02/18 13:06:54;;;;;;;2.15;0.30;;;;;;;13.31;61.88;100775.28;12595646;23;20528;-61
2023/02/18 13:11:59;;;;;;;1.52;0.40;;;;;;;13.19;62.49;100783.81;12591933;23;20081;-62
2023/02/18 13:17:04;;;;;;;1.23;0.40;;;;;;;13.04;63.37;100772.13;12579068;23;20111;-62
2023/02/18 13:22:11;;;;;;;2.17;0.45;;;;;;;12.99;64.15;100777.22;12592860;23;20030;-63
2023/02/18 13:27:37;;;;;;;3.60;1.02;;;;;;;13.14;63.63;100764.63;12595764;23;20022;-62
2023/02/18 13:32:50;;;;;;;2.90;0.40;;;;;;;13.28;63.22;100754.88;12590430;23;20026;-63
2023/02/18 13:38:12;;;;;;;2.95;0.32;;;;;;;13.32;63.22;100763.47;12594215;23;20030;-62
2023/02/18 13:43:32;;;;;;;3.15;0.40;;;;;;;13.46;63.18;100765.34;12595619;23;20034;-62
2023/02/18 13:48:59;;;;;;;0.40;0.20;;;;;;;13.48;62.69;100749.78;12596734;23;20030;-63
2023/02/18 13:54:17;;;;;;;2.03;0.40;;;;;;;13.41;62.83;100759.69;12596862;23;20033;-62
2023/02/18 13:59:34;;;;;;;0.85;0.60;;;;;;;13.42;63.45;100762.16;12595817;23;20085;-62
2023/02/18 14:04:38;;;;;;;2.13;0.40;;;;;;;13.28;64.35;100769.19;12590842;23;20090;-62
2023/02/18 14:09:41;;;;;;;1.40;0.50;;;;;;;13.20;64.99;100769.28;12596750;23;20030;-62
2023/02/18 14:14:43;;;;;;;2.42;0.60;;;;;;;13.19;64.70;100758.66;12568278;23;20085;-63
2023/02/18 14:19:55;;;;;;;1.05;0.40;;;;;;;13.21;64.96;100759.31;12596498;23;20384;-63
2023/02/18 14:25:33;;;;;;;0.80;0.30;;;;;;;13.12;65.38;100760.44;12598735;23;20034;-63
2023/02/18 14:30:39;;;;;;;1.10;0.50;;;;;;;12.97;65.77;100753.09;12551771;23;20093;-62
2023/02/18 14:35:55;;;;;;;1.93;0.50;;;;;;;13.10;65.60;100756.03;12594954;23;20354;-62
2023/02/18 14:41:39;;;;;;;0.60;0.40;;;;;;;13.25;65.65;100747.97;12597167;23;20030;-63
2023/02/18 14:46:59;;;;;;;0.50;0.30;;;;;;;13.30;65.64;100750.16;12507340;23;20022;-64
2023/02/18 14:52:02;;;;;;;2.55;0.65;;;;;;;13.38;65.35;100747.38;12540702;23;20022;-63
2023/02/18 14:57:08;;;;;;;1.65;0.40;;;;;;;13.55;65.02;100753.44;12536651;23;20055;-63
2023/02/18 15:02:22;;;;;;;0.90;0.40;;;;;;;13.61;64.36;100739.19;12522992;23;20026;-63
2023/02/18 15:07:23;;;;;;;2.67;0.55;;;;;;;13.57;64.85;100750.56;12565317;23;20022;-63
2023/02/18 15:12:25;;;;;;;2.35;0.65;;;;;;;13.58;64.61;100747.66;12532620;23;20467;-64
2023/02/18 15:17:27;;;;;;;0.68;0.22;;;;;;;13.55;64.37;100750.75;12533919;23;20026;-63
2023/02/18 15:22:32;;;;;;;0.80;0.30;;;;;;;13.57;64.26;100755.97;12522548;23;20399;-62
2023/02/18 15:27:38;;;;;;;0.98;0.30;;;;;;;13.60;64.17;100747.47;12528369;23;20099;-62
2023/02/18 15:32:48;;;;;;;1.88;0.40;;;;;;;13.63;63.72;100752.53;12535841;23;20376;-63
2023/02/18 15:37:53;;;;;;;0.60;0.30;;;;;;;13.64;63.62;100755.00;12533066;23;20758;-63
2023/02/18 15:42:58;;;;;;;0.70;0.30;;;;;;;13.55;63.80;100763.41;12534234;23;20038;-64
2023/02/18 15:48:00;;;;;;;0.68;0.20;;;;;;;13.55;63.86;100756.16;12531089;23;20030;-62
2023/02/18 15:53:14;;;;;;;2.25;0.20;;;;;;;13.49;63.51;100757.72;12533336;23;20075;-63
2023/02/18 15:58:20;;;;;;;0.93;0.20;;;;;;;13.57;63.37;100753.25;12531768;23;20082;-62
2023/02/18 16:03:24;;;;;;;1.17;0.30;;;;;;;13.64;62.83;100754.19;12531741;23;20061;-62
2023/02/18 16:08:26;;;;;;;0.52;0.20;;;;;;;13.64;62.99;100759.59;12533121;23;20030;-63
2023/02/18 16:13:30;;;;;;;0.10;0.10;;;;;;;13.65;62.69;100756.69;12537692;23;20031;-61
2023/02/18 16:18:40;;;;;;;1.20;0.20;;;;;;;13.66;62.34;100752.13;12534104;23;20019;-62
2023/02/18 16:23:44;;;;;;;0.30;0.20;;;;;;;13.75;62.16;100758.28;12535266;23;20042;-62
2023/02/18 16:28:46;;;;;;;2.03;0.20;;;;;;;13.76;61.99;100759.94;12532656;23;20359;-62
2023/02/18 16:33:48;;;;;;;5.97;1.10;;;;;;;13.74;61.80;100767.41;12533692;23;20042;-63
2023/02/18 16:38:49;;;;;;;1.45;0.47;;;;;;;13.80;61.77;100769.38;12508362;23;20095;-63
2023/02/18 16:43:52;;;;;;;2.53;0.20;;;;;;;13.78;61.70;100749.78;12589132;23;20086;-62
2023/02/18 16:48:55;;;;;;;1.05;0.20;;;;;;;13.66;61.83;100762.94;12596943;23;20007;-62
2023/02/18 16:53:56;;;;;;;0.95;0.20;;;;;;;13.61;61.82;100765.38;12569695;23;20066;-63
2023/02/18 16:58:58;;;;;;;3.72;0.20;;;;;;;13.54;61.70;100767.13;12594682;23;20059;-62
2023/02/18 17:04:01;;;;;;;1.50;0.20;;;;;;;13.53;61.91;100757.38;12587874;23;20029;-62
2023/02/18 17:09:12;;;;;;;0.68;0.28;;;;;;;13.54;61.62;100767.97;12583898;23;20078;-62
2023/02/18 17:14:17;;;;;;;1.13;0.22;;;;;;;13.52;61.80;100763.78;12587929;23;20023;-61
2023/02/18 17:19:19;;;;;;;0.32;0.20;;;;;;;13.42;61.60;100764.03;12580031;23;20022;-63
2023/02/18 17:24:20;;;;;;;0.57;0.15;;;;;;;13.37;61.95;100767.31;12582271;23;20026;-62
2023/02/18 17:29:22;;;;;;;0.28;0.20;;;;;;;13.40;61.73;100776.88;12584601;23;20031;-62
2023/02/18 17:34:26;;;;;;;2.53;0.30;;;;;;;13.40;61.68;100780.41;12585896;23;20494;-62
2023/02/18 17:39:30;;;;;;;1.45;0.20;;;;;;;13.36;61.72;100789.09;12587933;23;20006;-62
2023/02/18 17:44:31;;;;;;;0.60;0.30;;;;;;;13.32;61.65;100796.69;12594882;23;20026;-62
2023/02/18 17:49:32;;;;;;;1.20;0.30;;;;;;;13.31;61.88;100783.38;12596718;23;20088;-63
2023/02/18 17:54:34;;;;;;;0.30;0.28;;;;;;;13.30;62.28;100798.75;12593996;23;20014;-62
2023/02/18 17:59:35;;;;;;;1.52;0.40;;;;;;;13.31;62.13;100803.16;12590216;23;20018;-63
2023/02/18 18:04:36;;;;;;;0.35;0.32;;;;;;;13.29;62.20;100814.13;12601904;23;20025;-62
2023/02/18 18:09:38;;;;;;;2.60;0.40;;;;;;;13.36;62.15;100805.28;12591391;23;20033;-60
2023/02/18 18:14:39;;;;;;;0.77;0.50;;;;;;;13.26;62.07;100817.13;12593450;23;20037;-60
2023/02/18 18:19:40;;;;;;;1.70;0.70;;;;;;;13.17;62.29;100815.56;12591377;23;20015;-63
2023/02/18 18:24:42;;;;;;;0.55;0.40;;;;;;;13.17;62.21;100812.84;12590831;23;20050;-61
2023/02/18 18:29:43;;;;;;;1.23;0.50;;;;;;;13.16;62.58;100813.84;12588479;23;20018;-60
2023/02/18 18:34:46;;;;;;;1.98;0.65;;;;;;;13.12;62.87;100817.09;12588890;23;20022;-61
2023/02/18 18:39:49;;;;;;;0.73;0.60;;;;;;;13.09;62.71;100812.88;12587068;23;20405;-61
2023/02/18 18:44:50;;;;;;;1.17;0.50;;;;;;;13.00;63.42;100822.09;12589247;23;20018;-61
2023/02/18 18:49:52;;;;;;;1.08;0.70;;;;;;;12.90;63.43;100819.63;12587848;23;20027;-60
2023/02/18 18:54:53;;;;;;;1.33;0.73;;;;;;;12.96;63.28;100818.91;12585770;23;20018;-62
2023/02/18 18:59:55;;;;;;;1.13;0.45;;;;;;;12.90;63.29;100819.63;12595936;23;20083;-61
2023/02/18 19:04:56;;;;;;;2.58;0.80;;;;;;;12.85;63.49;100814.75;12593384;23;20007;-61
2023/02/18 19:09:57;;;;;;;0.85;0.60;;;;;;;12.86;63.66;100816.44;12591170;23;20058;-60
2023/02/18 19:14:59;;;;;;;0.77;0.57;;;;;;;12.82;64.27;100814.28;12591330;23;20046;-59
2023/02/18 19:20:00;;;;;;;1.70;0.73;;;;;;;12.80;63.92;100827.97;12586534;23;20106;-61
2023/02/18 19:25:02;;;;;;;1.83;0.70;;;;;;;12.66;64.50;100821.47;12588056;23;20031;-59
2023/02/18 19:30:05;;;;;;;1.00;0.70;;;;;;;12.64;64.68;100828.06;12587803;23;20018;-61
2023/02/18 19:35:07;;;;;;;1.48;0.80;;;;;;;12.64;65.09;100823.50;12587708;23;20046;-60
2023/02/18 19:40:11;;;;;;;2.75;1.00;;;;;;;12.48;65.37;100819.06;12585321;23;20034;-60
2023/02/18 19:45:13;;;;;;;1.40;0.73;;;;;;;12.38;65.82;100826.53;12589720;23;20018;-62
2023/02/18 19:50:15;;;;;;;1.27;0.70;;;;;;;12.41;66.24;100820.75;12588567;23;20062;-61
2023/02/18 19:55:17;;;;;;;1.55;0.65;;;;;;;12.21;67.24;100824.91;12586830;23;20084;-61
2023/02/18 20:00:21;;;;;;;0.90;0.70;;;;;;;12.07;67.66;100810.31;12584100;23;20078;-59
2023/02/18 20:05:22;;;;;;;1.40;1.02;;;;;;;11.92;67.93;100823.66;12584924;23;20106;-60
2023/02/18 20:10:24;;;;;;;1.75;1.00;;;;;;;11.89;68.01;100808.69;12587393;23;20019;-63
2023/02/18 20:15:25;;;;;;;1.98;0.77;;;;;;;11.80;68.24;100803.47;12585620;23;20026;-60
2023/02/18 20:20:27;;;;;;;2.90;1.42;;;;;;;11.85;68.72;100796.53;12548347;23;20105;-60
2023/02/18 20:25:29;;;;;;;2.10;1.10;;;;;;;11.70;69.04;100803.66;12575406;23;20091;-60
2023/02/18 20:30:31;;;;;;;2.58;1.00;;;;;;;11.71;69.13;100802.66;12570985;23;20124;-60
2023/02/18 20:35:32;;;;;;;3.15;1.15;;;;;;;11.70;69.13;100796.41;12569526;23;20022;-59
2023/02/18 20:40:33;;;;;;;3.85;1.23;;;;;;;11.77;69.50;100806.50;12565143;23;20530;-59
2023/02/18 20:45:35;;;;;;;1.50;1.05;;;;;;;11.69;69.81;100804.69;12562523;23;20074;-59
2023/02/18 20:50:36;;;;;;;2.33;1.13;;;;;;;11.68;70.13;100800.28;12571706;23;20031;-60
2023/02/18 20:55:45;;;;;;;5.15;1.25;;;;;;;11.69;69.80;100792.06;12572259;23;20027;-60
2023/02/18 21:00:58;;;;;;;2.42;1.80;;;;;;;11.80;69.97;100792.69;12567286;23;20112;-60
2023/02/18 21:06:04;;;;;;;3.10;1.48;;;;;;;11.88;69.13;100779.19;12573283;23;20022;-58
2023/02/18 21:11:09;;;;;;;1.42;1.33;;;;;;;11.95;68.95;100777.53;12574537;23;20039;-58
2023/02/18 21:16:11;;;;;;;4.32;1.80;;;;;;;12.00;69.17;100777.00;12598491;23;20109;-61
2023/02/18 21:21:13;;;;;;;1.95;1.58;;;;;;;12.05;68.99;100775.44;12671695;23;20572;-60
2023/02/18 21:26:18;;;;;;;1.95;1.20;;;;;;;12.12;68.58;100763.97;12692419;23;20026;-59
2023/02/18 21:31:23;;;;;;;2.15;1.45;;;;;;;12.21;68.08;100762.91;12661215;23;20355;-59
2023/02/18 21:36:25;;;;;;;3.60;2.10;;;;;;;12.25;67.62;100754.28;12684597;23;20037;-60
2023/02/18 21:41:28;;;;;;;3.13;1.77;;;;;;;12.30;67.64;100754.63;12688373;23;20045;-59
2023/02/18 21:46:32;;;;;;;4.53;1.95;;;;;;;12.36;67.52;100760.28;12662856;23;20049;-59
2023/02/18 21:51:56;;;;;;;3.03;1.92;;;;;;;12.39;67.19;100744.59;12682779;23;20425;-59
2023/02/18 21:56:59;;;;;;;3.00;2.35;;;;;;;12.44;67.46;100733.28;12623104;23;20013;-60
2023/02/18 22:02:02;;;;;;;3.13;2.42;;;;;;;12.43;67.22;100735.16;12691624;23;20077;-60
2023/02/18 22:07:04;;;;;;;4.20;2.78;;;;;;;12.42;67.28;100724.53;12657232;23;20029;-60
2023/02/18 22:12:06;;;;;;;5.85;2.75;;;;;;;12.47;66.82;100728.38;12690686;23;20057;-60
2023/02/18 22:17:07;;;;;;;4.20;2.38;;;;;;;12.46;67.02;100726.72;12643080;23;20030;-61
2023/02/18 22:22:09;;;;;;;5.30;3.00;;;;;;;12.45;67.04;100718.78;12627550;23;20025;-60
2023/02/18 22:27:11;;;;;;;5.82;3.58;;;;;;;12.30;67.14;100706.09;12625103;23;20458;-60
2023/02/18 22:32:13;;;;;;;4.57;3.40;;;;;;;12.26;67.57;100703.91;12628878;23;20018;-60
2023/02/18 22:37:14;;;;;;;4.45;3.20;;;;;;;12.14;67.66;100706.16;12623506;23;20050;-60
2023/02/18 22:42:16;;;;;;;4.68;3.05;;;;;;;12.21;67.76;100706.31;12604669;23;20409;-61
2023/02/18 22:47:17;;;;;;;4.35;3.30;;;;;;;12.19;67.69;100714.56;12633860;23;20026;-61
2023/02/18 22:52:19;;;;;;;4.18;2.88;;;;;;;12.24;67.37;100711.34;12638071;23;20018;-62
2023/02/18 22:57:20;;;;;;;3.25;2.45;;;;;;;12.32;67.09;100713.97;12640541;23;20038;-61
2023/02/18 23:02:23;;;;;;;4.47;2.45;;;;;;;12.35;66.78;100704.72;12640994;23;20061;-61
2023/02/18 23:07:25;;;;;;;4.18;2.70;;;;;;;12.38;66.94;100709.72;12638027;23;20224;-61
2023/02/18 23:12:26;;;;;;;4.35;3.35;;;;;;;12.36;66.87;100709.06;12638606;23;20019;-62
2023/02/18 23:17:28;;;;;;;4.35;2.92;;;;;;;12.39;66.79;100700.63;12642015;23;20018;-62
2023/02/18 23:22:32;;;;;;;6.97;3.70;;;;;;;12.42;66.77;100702.97;12642397;23;20551;-62
2023/02/18 23:27:33;;;;;;;4.85;3.15;;;;;;;12.43;66.63;100700.09;12629643;23;20018;-61